PWSweather.com
Personal Weather Stations
Station Observations
KNYLONGL2
Adirondack Acres, Long Lake, NY 12847

Adirondack AcresLong Lake, NY 12847

Lat: 43.979118, Lon: -74.43445500000001

Elevation: 1650

Station Type: Davis Vantage Pro2

http://www.adirondackacres.com/weather

Latest ConditionsUpdated 8:55:00 PM EST Saturday, Feb 23, 2019
Currently Today's Max Today's Min Today's Average
Temperature 29.0°F-1.7°C 38.3°F3.5°C 22.7°F-5.2°C 28.6°F-1.9°C
Dew Point 20.4°F-6.4°C 24.2°F-4.3°C 19.1°F-7.2°C 21.0°F-6.1°C
Winds 2.0 mph N3.2 kmh N 3.0 mph -4.8 kmh - - 0.5 mph 0.8 kmh
Wind Gusts 4.0 mph6.4 kmh 6.0 mph9.7 kmh - -
Humidity 70% 88% 54% 74%
Pressure 30.18 in1022.0 mb 30.47 in1031.8 mb 30.18 in1022.0 mb -
Precipitation - 0.10 in2.5 mm - -
Hour Temp Dew Point Humidity Winds Wind Gusts Pressure Precip Precip Rate Daily Precip Total
08:55 PM 29.0°F-1.7°C 20.4°F-6.4°C 70% 2.0 mph N3.2 kmh N 4.0 mph6.4 kmh 30.18 in1022.0 mb 0.00 in0.0 mm 0.00 in0.0 mm 0.10 in2.5 mm
08:50 PM 29.1°F-1.6°C 20.5°F-6.4°C 70% 2.0 mph N3.2 kmh N 4.0 mph6.4 kmh 30.19 in1022.4 mb 0.00 in0.0 mm 0.00 in0.0 mm 0.10 in2.5 mm
08:45 PM 29.3°F-1.5°C 20.4°F-6.4°C 69% 2.0 mph NNE3.2 kmh NNE 4.0 mph6.4 kmh 30.19 in1022.4 mb 0.00 in0.0 mm 0.00 in0.0 mm 0.10 in2.5 mm
08:40 PM 29.4°F-1.4°C 20.5°F-6.4°C 69% 1.0 mph NE1.6 kmh NE 4.0 mph6.4 kmh 30.20 in1022.7 mb 0.00 in0.0 mm 0.00 in0.0 mm 0.10 in2.5 mm
08:35 PM 29.4°F-1.4°C 20.5°F-6.4°C 69% 1.0 mph NE1.6 kmh NE 3.0 mph4.8 kmh 30.20 in1022.7 mb 0.00 in0.0 mm 0.00 in0.0 mm 0.10 in2.5 mm
08:30 PM 29.4°F-1.4°C 20.5°F-6.4°C 69% 1.0 mph NE1.6 kmh NE 3.0 mph4.8 kmh 30.20 in1022.7 mb 0.00 in0.0 mm 0.00 in0.0 mm 0.10 in2.5 mm
08:25 PM 29.5°F-1.4°C 20.2°F-6.6°C 68% 1.0 mph NNE1.6 kmh NNE 3.0 mph4.8 kmh 30.20 in1022.7 mb 0.00 in0.0 mm 0.00 in0.0 mm 0.10 in2.5 mm
08:20 PM 29.6°F-1.3°C 20.3°F-6.5°C 68% 1.0 mph N1.6 kmh N 3.0 mph4.8 kmh 30.20 in1022.7 mb 0.00 in0.0 mm 0.00 in0.0 mm 0.10 in2.5 mm
08:15 PM 29.6°F-1.3°C 20.3°F-6.5°C 68% 1.0 mph N1.6 kmh N 3.0 mph4.8 kmh 30.20 in1022.7 mb 0.00 in0.0 mm 0.00 in0.0 mm 0.10 in2.5 mm
08:10 PM 29.5°F-1.4°C 20.6°F-6.3°C 69% 2.0 mph N3.2 kmh N 5.0 mph8.0 kmh 30.20 in1022.7 mb 0.00 in0.0 mm 0.00 in0.0 mm 0.10 in2.5 mm
08:05 PM 29.4°F-1.4°C 20.5°F-6.4°C 69% 2.0 mph N3.2 kmh N 5.0 mph8.0 kmh 30.20 in1022.7 mb 0.00 in0.0 mm 0.00 in0.0 mm 0.10 in2.5 mm
08:00 PM 29.2°F-1.6°C 20.6°F-6.3°C 70% 1.0 mph N1.6 kmh N 6.0 mph9.7 kmh 30.21 in1023.0 mb 0.00 in0.0 mm 0.00 in0.0 mm 0.10 in2.5 mm
07:55 PM 29.1°F-1.6°C 20.5°F-6.4°C 70% 1.0 mph N1.6 kmh N 6.0 mph9.7 kmh 30.21 in1023.0 mb 0.00 in0.0 mm 0.00 in0.0 mm 0.10 in2.5 mm
07:50 PM 29.0°F-1.7°C 20.4°F-6.4°C 70% 1.0 mph N1.6 kmh N 4.0 mph6.4 kmh 30.21 in1023.0 mb 0.00 in0.0 mm 0.00 in0.0 mm 0.10 in2.5 mm
07:45 PM 28.8°F-1.8°C 20.2°F-6.6°C 70% 1.0 mph NNE1.6 kmh NNE 4.0 mph6.4 kmh 30.20 in1022.7 mb 0.00 in0.0 mm 0.00 in0.0 mm 0.10 in2.5 mm
07:40 PM 28.6°F-1.9°C 20.4°F-6.4°C 71% 1.0 mph NNE1.6 kmh NNE 4.0 mph6.4 kmh 30.21 in1023.0 mb 0.00 in0.0 mm 0.00 in0.0 mm 0.10 in2.5 mm
07:35 PM 28.3°F-2.1°C 20.4°F-6.4°C 72% Calm Calm 2.0 mph3.2 kmh 30.21 in1023.0 mb 0.00 in0.0 mm 0.00 in0.0 mm 0.10 in2.5 mm
07:30 PM 28.3°F-2.1°C 20.4°F-6.4°C 72% Calm Calm 2.0 mph3.2 kmh 30.21 in1023.0 mb 0.00 in0.0 mm 0.00 in0.0 mm 0.10 in2.5 mm
07:25 PM 28.4°F-2.0°C 20.8°F-6.2°C 73% Calm Calm 2.0 mph3.2 kmh 30.21 in1023.0 mb 0.00 in0.0 mm 0.00 in0.0 mm 0.10 in2.5 mm
07:20 PM 28.6°F-1.9°C 20.7°F-6.3°C 72% 1.0 mph NNE1.6 kmh NNE 4.0 mph6.4 kmh 30.21 in1023.0 mb 0.00 in0.0 mm 0.00 in0.0 mm 0.10 in2.5 mm
07:15 PM 28.7°F-1.8°C 20.8°F-6.2°C 72% 1.0 mph NNE1.6 kmh NNE 4.0 mph6.4 kmh 30.21 in1023.0 mb 0.00 in0.0 mm 0.00 in0.0 mm 0.10 in2.5 mm
07:10 PM 28.4°F-2.0°C 20.8°F-6.2°C 73% 1.0 mph NE1.6 kmh NE 4.0 mph6.4 kmh 30.21 in1023.0 mb 0.00 in0.0 mm 0.00 in0.0 mm 0.10 in2.5 mm
07:05 PM 28.1°F-2.2°C 20.9°F-6.2°C 74% 1.0 mph NE1.6 kmh NE 3.0 mph4.8 kmh 30.21 in1023.0 mb 0.00 in0.0 mm 0.00 in0.0 mm 0.10 in2.5 mm
07:00 PM 27.8°F-2.3°C 20.9°F-6.2°C 75% 1.0 mph NE1.6 kmh NE 3.0 mph4.8 kmh 30.21 in1023.0 mb 0.00 in0.0 mm 0.00 in0.0 mm 0.10 in2.5 mm
06:55 PM 27.4°F-2.6°C 20.8°F-6.2°C 76% Calm Calm 3.0 mph4.8 kmh 30.21 in1023.0 mb 0.00 in0.0 mm 0.00 in0.0 mm 0.10 in2.5 mm
06:50 PM 27.4°F-2.6°C 21.1°F-6.1°C 77% Calm Calm 3.0 mph4.8 kmh 30.21 in1023.0 mb 0.00 in0.0 mm 0.00 in0.0 mm 0.10 in2.5 mm
06:45 PM 27.6°F-2.4°C 21.3°F-5.9°C 77% Calm Calm 3.0 mph4.8 kmh 30.21 in1023.0 mb 0.00 in0.0 mm 0.00 in0.0 mm 0.10 in2.5 mm
06:40 PM 27.8°F-2.3°C 21.2°F-6.0°C 76% Calm Calm 2.0 mph3.2 kmh 30.21 in1023.0 mb 0.00 in0.0 mm 0.00 in0.0 mm 0.10 in2.5 mm
06:35 PM 28.1°F-2.2°C 21.5°F-5.8°C 76% Calm Calm 2.0 mph3.2 kmh 30.21 in1023.0 mb 0.00 in0.0 mm 0.00 in0.0 mm 0.10 in2.5 mm
06:30 PM 28.5°F-1.9°C 21.6°F-5.8°C 75% Calm Calm 2.0 mph3.2 kmh 30.22 in1023.4 mb 0.00 in0.0 mm 0.00 in0.0 mm 0.10 in2.5 mm
06:25 PM 29.0°F-1.7°C 21.7°F-5.7°C 74% Calm Calm 2.0 mph3.2 kmh 30.21 in1023.0 mb 0.00 in0.0 mm 0.00 in0.0 mm 0.10 in2.5 mm
06:20 PM 29.5°F-1.4°C 21.9°F-5.6°C 73% Calm Calm 2.0 mph3.2 kmh 30.22 in1023.4 mb 0.00 in0.0 mm 0.00 in0.0 mm 0.10 in2.5 mm
06:15 PM 30.1°F-1.1°C 21.8°F-5.7°C 71% Calm Calm 2.0 mph3.2 kmh 30.22 in1023.4 mb 0.00 in0.0 mm 0.00 in0.0 mm 0.10 in2.5 mm
06:10 PM 30.6°F-0.8°C 22.0°F-5.6°C 70% Calm Calm 2.0 mph3.2 kmh 30.22 in1023.4 mb 0.00 in0.0 mm 0.00 in0.0 mm 0.10 in2.5 mm
06:05 PM 31.2°F-0.4°C 21.9°F-5.6°C 68% Calm Calm 2.0 mph3.2 kmh 30.21 in1023.0 mb 0.00 in0.0 mm 0.00 in0.0 mm 0.10 in2.5 mm
06:00 PM 31.7°F-0.2°C 22.0°F-5.6°C 67% Calm Calm 3.0 mph4.8 kmh 30.21 in1023.0 mb 0.00 in0.0 mm 0.00 in0.0 mm 0.10 in2.5 mm
05:55 PM 32.3°F0.2°C 21.8°F-5.7°C 65% Calm Calm 3.0 mph4.8 kmh 30.21 in1023.0 mb 0.00 in0.0 mm 0.00 in0.0 mm 0.10 in2.5 mm
05:50 PM 32.8°F0.4°C 22.3°F-5.4°C 65% Calm Calm 2.0 mph3.2 kmh 30.21 in1023.0 mb 0.00 in0.0 mm 0.00 in0.0 mm 0.10 in2.5 mm
05:45 PM 33.3°F0.7°C 22.4°F-5.3°C 64% Calm Calm 2.0 mph3.2 kmh 30.21 in1023.0 mb 0.00 in0.0 mm 0.00 in0.0 mm 0.10 in2.5 mm
05:40 PM 33.8°F1.0°C 22.9°F-5.1°C 64% Calm Calm 2.0 mph3.2 kmh 30.22 in1023.4 mb 0.01 in0.3 mm 0.00 in0.0 mm 0.10 in2.5 mm
05:35 PM 34.4°F1.3°C 22.7°F-5.2°C 62% 1.0 mph NE1.6 kmh NE 3.0 mph4.8 kmh 30.22 in1023.4 mb 0.01 in0.3 mm 0.00 in0.0 mm 0.10 in2.5 mm
05:30 PM 34.7°F1.5°C 22.6°F-5.2°C 61% 1.0 mph NE1.6 kmh NE 5.0 mph8.0 kmh 30.22 in1023.4 mb 0.01 in0.3 mm 0.00 in0.0 mm 0.10 in2.5 mm
05:25 PM 35.0°F1.7°C 22.9°F-5.1°C 61% 1.0 mph ENE1.6 kmh ENE 5.0 mph8.0 kmh 30.22 in1023.4 mb 0.01 in0.3 mm 0.00 in0.0 mm 0.10 in2.5 mm
05:20 PM 35.2°F1.8°C 22.7°F-5.2°C 60% Calm Calm 3.0 mph4.8 kmh 30.22 in1023.4 mb 0.01 in0.3 mm 0.00 in0.0 mm 0.10 in2.5 mm
05:15 PM 35.4°F1.9°C 22.9°F-5.1°C 60% Calm Calm 3.0 mph4.8 kmh 30.23 in1023.7 mb 0.01 in0.3 mm 0.00 in0.0 mm 0.10 in2.5 mm
05:10 PM 35.8°F2.1°C 23.7°F-4.6°C 61% Calm Calm 1.0 mph1.6 kmh 30.23 in1023.7 mb 0.01 in0.3 mm 0.00 in0.0 mm 0.10 in2.5 mm
05:05 PM 36.2°F2.3°C 23.2°F-4.9°C 59% Calm Calm 3.0 mph4.8 kmh 30.23 in1023.7 mb 0.01 in0.3 mm 0.00 in0.0 mm 0.10 in2.5 mm
05:00 PM 36.5°F2.5°C 23.9°F-4.5°C 60% Calm Calm 3.0 mph4.8 kmh 30.23 in1023.7 mb 0.01 in0.3 mm 0.00 in0.0 mm 0.10 in2.5 mm
04:55 PM 36.7°F2.6°C 23.3°F-4.8°C 58% Calm Calm 2.0 mph3.2 kmh 30.24 in1024.0 mb 0.01 in0.3 mm 0.00 in0.0 mm 0.10 in2.5 mm
04:50 PM 36.9°F2.7°C 23.5°F-4.7°C 58% Calm Calm 3.0 mph4.8 kmh 30.24 in1024.0 mb 0.02 in0.5 mm 0.00 in0.0 mm 0.10 in2.5 mm
04:45 PM 37.0°F2.8°C 23.2°F-4.9°C 57% Calm Calm 3.0 mph4.8 kmh 30.25 in1024.4 mb 0.02 in0.5 mm 0.12 in3.0 mm 0.10 in2.5 mm
04:40 PM 37.2°F2.9°C 23.8°F-4.6°C 58% Calm Calm 2.0 mph3.2 kmh 30.25 in1024.4 mb 0.01 in0.3 mm 0.00 in0.0 mm 0.09 in2.3 mm
04:35 PM 37.5°F3.1°C 24.1°F-4.4°C 58% Calm Calm 2.0 mph3.2 kmh 30.25 in1024.4 mb 0.01 in0.3 mm 0.00 in0.0 mm 0.09 in2.3 mm
04:30 PM 37.8°F3.2°C 23.1°F-4.9°C 55% 1.0 mph SSW1.6 kmh SSW 3.0 mph4.8 kmh 30.26 in1024.7 mb 0.01 in0.3 mm 0.00 in0.0 mm 0.09 in2.3 mm
04:25 PM 38.0°F3.3°C 23.7°F-4.6°C 56% 2.0 mph SSW3.2 kmh SSW 5.0 mph8.0 kmh 30.26 in1024.7 mb 0.01 in0.3 mm 0.00 in0.0 mm 0.09 in2.3 mm
04:20 PM 38.1°F3.4°C 22.9°F-5.1°C 54% 2.0 mph SSW3.2 kmh SSW 5.0 mph8.0 kmh 30.26 in1024.7 mb 0.01 in0.3 mm 0.00 in0.0 mm 0.09 in2.3 mm
04:15 PM 38.2°F3.4°C 23.0°F-5.0°C 54% 1.0 mph SSW1.6 kmh SSW 4.0 mph6.4 kmh 30.26 in1024.7 mb 0.01 in0.3 mm 0.00 in0.0 mm 0.09 in2.3 mm
04:10 PM 38.3°F3.5°C 23.5°F-4.7°C 55% Calm Calm 4.0 mph6.4 kmh 30.26 in1024.7 mb 0.02 in0.5 mm 0.00 in0.0 mm 0.09 in2.3 mm
04:05 PM 38.3°F3.5°C 24.0°F-4.4°C 56% Calm Calm 3.0 mph4.8 kmh 30.27 in1025.1 mb 0.02 in0.5 mm 0.00 in0.0 mm 0.09 in2.3 mm
04:00 PM 38.3°F3.5°C 24.0°F-4.4°C 56% Calm Calm 2.0 mph3.2 kmh 30.28 in1025.4 mb 0.02 in0.5 mm 0.00 in0.0 mm 0.09 in2.3 mm
03:55 PM 38.2°F3.4°C 23.4°F-4.8°C 55% Calm Calm 2.0 mph3.2 kmh 30.28 in1025.4 mb 0.02 in0.5 mm 0.12 in3.0 mm 0.09 in2.3 mm
03:50 PM 37.9°F3.3°C 23.6°F-4.7°C 56% Calm Calm 3.0 mph4.8 kmh 30.27 in1025.1 mb 0.01 in0.3 mm 0.00 in0.0 mm 0.08 in2.0 mm
03:45 PM 37.5°F3.1°C 23.6°F-4.7°C 57% 1.0 mph NNE1.6 kmh NNE 3.0 mph4.8 kmh 30.27 in1025.1 mb 0.02 in0.5 mm 0.00 in0.0 mm 0.08 in2.0 mm
03:40 PM 37.4°F3.0°C 24.0°F-4.4°C 58% Calm Calm 4.0 mph6.4 kmh 30.28 in1025.4 mb 0.02 in0.5 mm 0.00 in0.0 mm 0.08 in2.0 mm
03:35 PM 37.1°F2.8°C 23.3°F-4.8°C 57% 1.0 mph NE1.6 kmh NE 4.0 mph6.4 kmh 30.28 in1025.4 mb 0.02 in0.5 mm 0.00 in0.0 mm 0.08 in2.0 mm
03:30 PM 36.9°F2.7°C 23.1°F-4.9°C 57% Calm Calm 2.0 mph3.2 kmh 30.28 in1025.4 mb 0.03 in0.8 mm 0.00 in0.0 mm 0.08 in2.0 mm
03:25 PM 36.8°F2.7°C 23.0°F-5.0°C 57% 1.0 mph NE1.6 kmh NE 2.0 mph3.2 kmh 30.28 in1025.4 mb 0.03 in0.8 mm 0.00 in0.0 mm 0.08 in2.0 mm
03:20 PM 36.9°F2.7°C 23.1°F-4.9°C 57% 1.0 mph ENE1.6 kmh ENE 5.0 mph8.0 kmh 30.28 in1025.4 mb 0.04 in1.0 mm 0.00 in0.0 mm 0.08 in2.0 mm
03:15 PM 37.0°F2.8°C 23.2°F-4.9°C 57% 1.0 mph S1.6 kmh S 5.0 mph8.0 kmh 30.28 in1025.4 mb 0.04 in1.0 mm 0.12 in3.0 mm 0.08 in2.0 mm
03:10 PM 37.1°F2.8°C 23.3°F-4.8°C 57% 2.0 mph SSW3.2 kmh SSW 3.0 mph4.8 kmh 30.28 in1025.4 mb 0.03 in0.8 mm 0.00 in0.0 mm 0.07 in1.8 mm
03:05 PM 37.2°F2.9°C 23.4°F-4.8°C 57% 2.0 mph SSW3.2 kmh SSW 4.0 mph6.4 kmh 30.28 in1025.4 mb 0.04 in1.0 mm 0.00 in0.0 mm 0.07 in1.8 mm
03:00 PM 37.3°F2.9°C 23.4°F-4.8°C 57% 2.0 mph SSW3.2 kmh SSW 4.0 mph6.4 kmh 30.29 in1025.7 mb 0.04 in1.0 mm 0.00 in0.0 mm 0.07 in1.8 mm
02:55 PM 37.5°F3.1°C 23.6°F-4.7°C 57% 1.0 mph SSW1.6 kmh SSW 4.0 mph6.4 kmh 30.28 in1025.4 mb 0.04 in1.0 mm 0.00 in0.0 mm 0.07 in1.8 mm
02:50 PM 37.4°F3.0°C 24.0°F-4.4°C 58% Calm Calm 2.0 mph3.2 kmh 30.28 in1025.4 mb 0.05 in1.3 mm 0.12 in3.0 mm 0.07 in1.8 mm
02:45 PM 37.2°F2.9°C 23.4°F-4.8°C 57% Calm Calm 2.0 mph3.2 kmh 30.28 in1025.4 mb 0.04 in1.0 mm 0.00 in0.0 mm 0.06 in1.5 mm
02:40 PM 37.2°F2.9°C 24.2°F-4.3°C 59% 1.0 mph SSW1.6 kmh SSW 4.0 mph6.4 kmh 30.28 in1025.4 mb 0.04 in1.0 mm 0.00 in0.0 mm 0.06 in1.5 mm
02:35 PM 37.2°F2.9°C 23.4°F-4.8°C 57% 2.0 mph SSW3.2 kmh SSW 4.0 mph6.4 kmh 30.29 in1025.7 mb 0.05 in1.3 mm 0.12 in3.0 mm 0.06 in1.5 mm
02:30 PM 37.5°F3.1°C 23.6°F-4.7°C 57% 1.0 mph S1.6 kmh S 4.0 mph6.4 kmh 30.29 in1025.7 mb 0.04 in1.0 mm 0.00 in0.0 mm 0.05 in1.3 mm
02:25 PM 37.5°F3.1°C 24.1°F-4.4°C 58% Calm Calm 5.0 mph8.0 kmh 30.29 in1025.7 mb 0.04 in1.0 mm 0.12 in3.0 mm 0.05 in1.3 mm
02:20 PM 37.3°F2.9°C 23.9°F-4.5°C 58% 1.0 mph NE1.6 kmh NE 5.0 mph8.0 kmh 30.29 in1025.7 mb 0.03 in0.8 mm 0.00 in0.0 mm 0.04 in1.0 mm
02:15 PM 37.0°F2.8°C 23.6°F-4.7°C 58% 1.0 mph N1.6 kmh N 4.0 mph6.4 kmh 30.29 in1025.7 mb 0.03 in0.8 mm 0.00 in0.0 mm 0.04 in1.0 mm
02:10 PM 36.9°F2.7°C 23.1°F-4.9°C 57% 1.0 mph NNE1.6 kmh NNE 4.0 mph6.4 kmh 30.29 in1025.7 mb 0.03 in0.8 mm 0.12 in3.0 mm 0.04 in1.0 mm
02:05 PM 36.9°F2.7°C 23.5°F-4.7°C 58% 2.0 mph NNE3.2 kmh NNE 3.0 mph4.8 kmh 30.29 in1025.7 mb 0.02 in0.5 mm 0.00 in0.0 mm 0.03 in0.8 mm
02:00 PM 36.7°F2.6°C 23.7°F-4.6°C 59% 1.0 mph N1.6 kmh N 3.0 mph4.8 kmh 30.30 in1026.1 mb 0.02 in0.5 mm 0.00 in0.0 mm 0.03 in0.8 mm
01:55 PM 36.8°F2.7°C 23.4°F-4.8°C 58% 1.0 mph NE1.6 kmh NE 4.0 mph6.4 kmh 30.30 in1026.1 mb 0.02 in0.5 mm 0.12 in3.0 mm 0.03 in0.8 mm
01:50 PM 36.5°F2.5°C 23.1°F-4.9°C 58% 1.0 mph NE1.6 kmh NE 5.0 mph8.0 kmh 30.30 in1026.1 mb 0.01 in0.3 mm 0.00 in0.0 mm 0.02 in0.5 mm
01:45 PM 36.6°F2.6°C 23.2°F-4.9°C 58% 1.0 mph NE1.6 kmh NE 5.0 mph8.0 kmh 30.30 in1026.1 mb 0.01 in0.3 mm 0.00 in0.0 mm 0.02 in0.5 mm
01:40 PM 36.5°F2.5°C 23.9°F-4.5°C 60% Calm Calm 3.0 mph4.8 kmh 30.30 in1026.1 mb 0.01 in0.3 mm 0.12 in3.0 mm 0.02 in0.5 mm
01:35 PM 35.9°F2.2°C 23.7°F-4.6°C 61% Calm Calm 3.0 mph4.8 kmh 30.31 in1026.4 mb 0.00 in0.0 mm 0.00 in0.0 mm 0.01 in0.3 mm
01:30 PM 35.2°F1.8°C 23.1°F-4.9°C 61% 1.0 mph NE1.6 kmh NE 5.0 mph8.0 kmh 30.31 in1026.4 mb 0.00 in0.0 mm 0.00 in0.0 mm 0.01 in0.3 mm
01:25 PM 34.8°F1.6°C 22.7°F-5.2°C 61% 1.0 mph NNE1.6 kmh NNE 5.0 mph8.0 kmh 30.31 in1026.4 mb 0.00 in0.0 mm 0.00 in0.0 mm 0.01 in0.3 mm
01:20 PM 34.6°F1.4°C 22.5°F-5.3°C 61% Calm Calm 3.0 mph4.8 kmh 30.32 in1026.8 mb 0.00 in0.0 mm 0.00 in0.0 mm 0.01 in0.3 mm
01:15 PM 34.1°F1.2°C 22.4°F-5.3°C 62% Calm Calm 3.0 mph4.8 kmh 30.32 in1026.8 mb 0.00 in0.0 mm 0.00 in0.0 mm 0.01 in0.3 mm
01:10 PM 33.4°F0.8°C 22.1°F-5.5°C 63% 2.0 mph SSW3.2 kmh SSW 4.0 mph6.4 kmh 30.33 in1027.1 mb 0.00 in0.0 mm 0.00 in0.0 mm 0.01 in0.3 mm
01:05 PM 33.1°F0.6°C 21.9°F-5.6°C 63% 3.0 mph SSW4.8 kmh SSW 4.0 mph6.4 kmh 30.33 in1027.1 mb 0.01 in0.3 mm 0.00 in0.0 mm 0.01 in0.3 mm
01:00 PM 32.8°F0.4°C 22.0°F-5.6°C 64% 2.0 mph SSW3.2 kmh SSW 5.0 mph8.0 kmh 30.34 in1027.4 mb 0.01 in0.3 mm 0.00 in0.0 mm 0.01 in0.3 mm
12:55 PM 32.7°F0.4°C 21.5°F-5.8°C 63% 3.0 mph SSW4.8 kmh SSW 5.0 mph8.0 kmh 30.34 in1027.4 mb 0.01 in0.3 mm 0.00 in0.0 mm 0.01 in0.3 mm
12:50 PM 32.8°F0.4°C 21.2°F-6.0°C 62% 3.0 mph SSW4.8 kmh SSW 4.0 mph6.4 kmh 30.35 in1027.8 mb 0.01 in0.3 mm 0.00 in0.0 mm 0.01 in0.3 mm
12:45 PM 33.0°F0.6°C 21.4°F-5.9°C 62% 2.0 mph SSW3.2 kmh SSW 5.0 mph8.0 kmh 30.36 in1028.1 mb 0.01 in0.3 mm 0.00 in0.0 mm 0.01 in0.3 mm
12:40 PM 33.1°F0.6°C 21.9°F-5.6°C 63% 1.0 mph S1.6 kmh S 5.0 mph8.0 kmh 30.36 in1028.1 mb 0.01 in0.3 mm 0.00 in0.0 mm 0.01 in0.3 mm
12:35 PM 32.9°F0.5°C 22.4°F-5.3°C 65% 1.0 mph S1.6 kmh S 4.0 mph6.4 kmh 30.36 in1028.1 mb 0.01 in0.3 mm 0.00 in0.0 mm 0.01 in0.3 mm
12:30 PM 32.5°F0.3°C 22.0°F-5.6°C 65% 1.0 mph SSW1.6 kmh SSW 5.0 mph8.0 kmh 30.36 in1028.1 mb 0.01 in0.3 mm 0.00 in0.0 mm 0.01 in0.3 mm
12:25 PM 32.4°F0.2°C 21.9°F-5.6°C 65% 2.0 mph SSW3.2 kmh SSW 5.0 mph8.0 kmh 30.38 in1028.8 mb 0.01 in0.3 mm 0.00 in0.0 mm 0.01 in0.3 mm
12:20 PM 32.3°F0.2°C 21.5°F-5.8°C 64% 2.0 mph SSW3.2 kmh SSW 5.0 mph8.0 kmh 30.38 in1028.8 mb 0.01 in0.3 mm 0.00 in0.0 mm 0.01 in0.3 mm
12:15 PM 32.3°F0.2°C 21.5°F-5.8°C 64% 2.0 mph S3.2 kmh S 5.0 mph8.0 kmh 30.38 in1028.8 mb 0.01 in0.3 mm 0.00 in0.0 mm 0.01 in0.3 mm
12:10 PM 32.2°F0.1°C 21.7°F-5.7°C 65% 2.0 mph S3.2 kmh S 6.0 mph9.7 kmh 30.39 in1029.1 mb 0.01 in0.3 mm 0.12 in3.0 mm 0.01 in0.3 mm
12:05 PM 32.2°F0.1°C 22.1°F-5.5°C 66% 1.0 mph SSW1.6 kmh SSW 6.0 mph9.7 kmh 30.39 in1029.1 mb 0.00 in0.0 mm 0.00 in0.0 mm 0.00 in0.0 mm
12:00 PM 32.0°F0.0°C 21.9°F-5.6°C 66% 2.0 mph SSW3.2 kmh SSW 4.0 mph6.4 kmh 30.39 in1029.1 mb 0.00 in0.0 mm 0.00 in0.0 mm 0.00 in0.0 mm
11:55 AM 31.9°F-0.1°C 21.8°F-5.7°C 66% 2.0 mph SSW3.2 kmh SSW 5.0 mph8.0 kmh 30.40 in1029.5 mb 0.00 in0.0 mm 0.00 in0.0 mm 0.00 in0.0 mm
11:50 AM 31.7°F-0.2°C 22.0°F-5.6°C 67% 2.0 mph SSW3.2 kmh SSW 5.0 mph8.0 kmh 30.40 in1029.5 mb 0.00 in0.0 mm 0.00 in0.0 mm 0.00 in0.0 mm
11:45 AM 31.6°F-0.2°C 21.9°F-5.6°C 67% 2.0 mph S3.2 kmh S 4.0 mph6.4 kmh 30.40 in1029.5 mb 0.00 in0.0 mm 0.00 in0.0 mm 0.00 in0.0 mm
11:40 AM 31.5°F-0.3°C 21.8°F-5.7°C 67% 2.0 mph S3.2 kmh S 4.0 mph6.4 kmh 30.40 in1029.5 mb 0.00 in0.0 mm 0.00 in0.0 mm 0.00 in0.0 mm
11:35 AM 31.4°F-0.3°C 22.1°F-5.5°C 68% 1.0 mph S1.6 kmh S 4.0 mph6.4 kmh 30.41 in1029.8 mb 0.00 in0.0 mm 0.00 in0.0 mm 0.00 in0.0 mm
11:30 AM 31.2°F-0.4°C 21.9°F-5.6°C 68% 1.0 mph NE1.6 kmh NE 2.0 mph3.2 kmh 30.41 in1029.8 mb 0.00 in0.0 mm 0.00 in0.0 mm 0.00 in0.0 mm
10:40 AM 29.0°F-1.7°C 20.8°F-6.2°C 71% Calm Calm 4.0 mph6.4 kmh 30.40 in1029.5 mb 0.00 in0.0 mm 0.00 in0.0 mm 0.00 in0.0 mm
10:35 AM 28.7°F-1.8°C 20.8°F-6.2°C 72% 1.0 mph N1.6 kmh N 6.0 mph9.7 kmh 30.40 in1029.5 mb 0.00 in0.0 mm 0.00 in0.0 mm 0.00 in0.0 mm
10:30 AM 28.4°F-2.0°C 20.5°F-6.4°C 72% 2.0 mph NNE3.2 kmh NNE 6.0 mph9.7 kmh 30.39 in1029.1 mb 0.00 in0.0 mm 0.00 in0.0 mm 0.00 in0.0 mm
10:25 AM 28.3°F-2.1°C 20.7°F-6.3°C 73% 1.0 mph NE1.6 kmh NE 4.0 mph6.4 kmh 30.39 in1029.1 mb 0.00 in0.0 mm 0.00 in0.0 mm 0.00 in0.0 mm
10:20 AM 28.3°F-2.1°C 20.7°F-6.3°C 73% 1.0 mph NE1.6 kmh NE 4.0 mph6.4 kmh 30.39 in1029.1 mb 0.00 in0.0 mm 0.00 in0.0 mm 0.00 in0.0 mm
10:15 AM 28.3°F-2.1°C 20.4°F-6.4°C 72% 1.0 mph NE1.6 kmh NE 4.0 mph6.4 kmh 30.39 in1029.1 mb 0.00 in0.0 mm 0.00 in0.0 mm 0.00 in0.0 mm
10:10 AM 28.2°F-2.1°C 20.7°F-6.3°C 73% 1.0 mph ENE1.6 kmh ENE 3.0 mph4.8 kmh 30.40 in1029.5 mb 0.00 in0.0 mm 0.00 in0.0 mm 0.00 in0.0 mm
10:05 AM 28.3°F-2.1°C 20.4°F-6.4°C 72% 1.0 mph ENE1.6 kmh ENE 3.0 mph4.8 kmh 30.39 in1029.1 mb 0.00 in0.0 mm 0.00 in0.0 mm 0.00 in0.0 mm
10:00 AM 28.2°F-2.1°C 20.7°F-6.3°C 73% Calm Calm 2.0 mph3.2 kmh 30.39 in1029.1 mb 0.00 in0.0 mm 0.00 in0.0 mm 0.00 in0.0 mm
09:55 AM 28.0°F-2.2°C 20.8°F-6.2°C 74% Calm Calm 3.0 mph4.8 kmh 30.39 in1029.1 mb 0.00 in0.0 mm 0.00 in0.0 mm 0.00 in0.0 mm
09:50 AM 27.8°F-2.3°C 20.6°F-6.3°C 74% Calm Calm 3.0 mph4.8 kmh 30.40 in1029.5 mb 0.00 in0.0 mm 0.00 in0.0 mm 0.00 in0.0 mm
08:40 AM 26.0°F-3.3°C 21.3°F-5.9°C 82% Calm Calm -- 30.44 in1030.8 mb 0.00 in0.0 mm 0.00 in0.0 mm 0.00 in0.0 mm
08:35 AM 25.8°F-3.4°C 21.3°F-5.9°C 83% Calm Calm -- 30.44 in1030.8 mb 0.00 in0.0 mm 0.00 in0.0 mm 0.00 in0.0 mm
08:30 AM 25.6°F-3.6°C 21.2°F-6.0°C 83% Calm Calm -- 30.44 in1030.8 mb 0.00 in0.0 mm 0.00 in0.0 mm 0.00 in0.0 mm
08:25 AM 25.2°F-3.8°C 21.0°F-6.1°C 84% Calm Calm -- 30.44 in1030.8 mb 0.00 in0.0 mm 0.00 in0.0 mm 0.00 in0.0 mm
08:20 AM 25.0°F-3.9°C 20.8°F-6.2°C 84% Calm Calm -- 30.45 in1031.2 mb 0.00 in0.0 mm 0.00 in0.0 mm 0.00 in0.0 mm
08:15 AM 24.7°F-4.1°C 20.6°F-6.3°C 84% Calm Calm -- 30.45 in1031.2 mb 0.00 in0.0 mm 0.00 in0.0 mm 0.00 in0.0 mm
08:10 AM 24.5°F-4.2°C 20.6°F-6.3°C 85% Calm Calm -- 30.46 in1031.5 mb 0.00 in0.0 mm 0.00 in0.0 mm 0.00 in0.0 mm
08:05 AM 24.2°F-4.3°C 20.3°F-6.5°C 85% Calm Calm -- 30.46 in1031.5 mb 0.00 in0.0 mm 0.00 in0.0 mm 0.00 in0.0 mm
08:00 AM 24.0°F-4.4°C 20.1°F-6.6°C 85% Calm Calm 2.0 mph3.2 kmh 30.46 in1031.5 mb 0.00 in0.0 mm 0.00 in0.0 mm 0.00 in0.0 mm
07:55 AM 23.9°F-4.5°C 20.3°F-6.5°C 86% Calm Calm 2.0 mph3.2 kmh 30.46 in1031.5 mb 0.00 in0.0 mm 0.00 in0.0 mm 0.00 in0.0 mm
07:50 AM 23.7°F-4.6°C 20.1°F-6.6°C 86% Calm Calm -- 30.46 in1031.5 mb 0.00 in0.0 mm 0.00 in0.0 mm 0.00 in0.0 mm
07:45 AM 23.5°F-4.7°C 20.2°F-6.6°C 87% Calm Calm -- 30.46 in1031.5 mb 0.00 in0.0 mm 0.00 in0.0 mm 0.00 in0.0 mm
07:40 AM 23.4°F-4.8°C 20.1°F-6.6°C 87% Calm Calm -- 30.46 in1031.5 mb 0.00 in0.0 mm 0.00 in0.0 mm 0.00 in0.0 mm
07:35 AM 23.2°F-4.9°C 20.2°F-6.6°C 88% Calm Calm -- 30.46 in1031.5 mb 0.00 in0.0 mm 0.00 in0.0 mm 0.00 in0.0 mm
07:30 AM 23.1°F-4.9°C 20.1°F-6.6°C 88% Calm Calm -- 30.46 in1031.5 mb 0.00 in0.0 mm 0.00 in0.0 mm 0.00 in0.0 mm
07:25 AM 23.0°F-5.0°C 20.0°F-6.7°C 88% Calm Calm -- 30.46 in1031.5 mb 0.00 in0.0 mm 0.00 in0.0 mm 0.00 in0.0 mm
07:20 AM 22.9°F-5.1°C 19.9°F-6.7°C 88% Calm Calm -- 30.46 in1031.5 mb 0.00 in0.0 mm 0.00 in0.0 mm 0.00 in0.0 mm
07:15 AM 22.9°F-5.1°C 19.6°F-6.9°C 87% Calm Calm -- 30.46 in1031.5 mb 0.00 in0.0 mm 0.00 in0.0 mm 0.00 in0.0 mm
07:10 AM 22.8°F-5.1°C 19.5°F-6.9°C 87% Calm Calm -- 30.46 in1031.5 mb 0.00 in0.0 mm 0.00 in0.0 mm 0.00 in0.0 mm
07:05 AM 22.7°F-5.2°C 19.4°F-7.0°C 87% Calm Calm -- 30.46 in1031.5 mb 0.00 in0.0 mm 0.00 in0.0 mm 0.00 in0.0 mm
07:00 AM 22.7°F-5.2°C 19.4°F-7.0°C 87% Calm Calm -- 30.46 in1031.5 mb 0.00 in0.0 mm 0.00 in0.0 mm 0.00 in0.0 mm
06:55 AM 22.8°F-5.1°C 19.5°F-6.9°C 87% Calm Calm -- 30.46 in1031.5 mb 0.00 in0.0 mm 0.00 in0.0 mm 0.00 in0.0 mm
06:50 AM 22.8°F-5.1°C 19.8°F-6.8°C 88% Calm Calm -- 30.46 in1031.5 mb 0.00 in0.0 mm 0.00 in0.0 mm 0.00 in0.0 mm
06:45 AM 22.8°F-5.1°C 19.8°F-6.8°C 88% Calm Calm 1.0 mph1.6 kmh 30.46 in1031.5 mb 0.00 in0.0 mm 0.00 in0.0 mm 0.00 in0.0 mm
06:40 AM 22.7°F-5.2°C 19.4°F-7.0°C 87% Calm Calm 1.0 mph1.6 kmh 30.46 in1031.5 mb 0.00 in0.0 mm 0.00 in0.0 mm 0.00 in0.0 mm
06:35 AM 22.7°F-5.2°C 19.7°F-6.8°C 88% Calm Calm -- 30.47 in1031.8 mb 0.00 in0.0 mm 0.00 in0.0 mm 0.00 in0.0 mm
06:30 AM 22.7°F-5.2°C 19.7°F-6.8°C 88% Calm Calm 2.0 mph3.2 kmh 30.47 in1031.8 mb 0.00 in0.0 mm 0.00 in0.0 mm 0.00 in0.0 mm
06:25 AM 22.7°F-5.2°C 19.7°F-6.8°C 88% Calm Calm 2.0 mph3.2 kmh 30.46 in1031.5 mb 0.00 in0.0 mm 0.00 in0.0 mm 0.00 in0.0 mm
06:20 AM 22.7°F-5.2°C 19.4°F-7.0°C 87% Calm Calm -- 30.46 in1031.5 mb 0.00 in0.0 mm 0.00 in0.0 mm 0.00 in0.0 mm
06:15 AM 22.7°F-5.2°C 19.4°F-7.0°C 87% Calm Calm -- 30.46 in1031.5 mb 0.00 in0.0 mm 0.00 in0.0 mm 0.00 in0.0 mm
06:10 AM 22.8°F-5.1°C 19.5°F-6.9°C 87% Calm Calm -- 30.46 in1031.5 mb 0.00 in0.0 mm 0.00 in0.0 mm 0.00 in0.0 mm
06:05 AM 22.8°F-5.1°C 19.5°F-6.9°C 87% Calm Calm -- 30.45 in1031.2 mb 0.00 in0.0 mm 0.00 in0.0 mm 0.00 in0.0 mm
06:00 AM 22.8°F-5.1°C 19.5°F-6.9°C 87% Calm Calm -- 30.46 in1031.5 mb 0.00 in0.0 mm 0.00 in0.0 mm 0.00 in0.0 mm
05:55 AM 22.9°F-5.1°C 19.6°F-6.9°C 87% Calm Calm -- 30.46 in1031.5 mb 0.00 in0.0 mm 0.00 in0.0 mm 0.00 in0.0 mm
05:50 AM 22.9°F-5.1°C 19.6°F-6.9°C 87% Calm Calm -- 30.46 in1031.5 mb 0.00 in0.0 mm 0.00 in0.0 mm 0.00 in0.0 mm
05:45 AM 22.9°F-5.1°C 19.6°F-6.9°C 87% Calm Calm -- 30.46 in1031.5 mb 0.00 in0.0 mm 0.00 in0.0 mm 0.00 in0.0 mm
05:40 AM 22.9°F-5.1°C 19.6°F-6.9°C 87% Calm Calm -- 30.46 in1031.5 mb 0.00 in0.0 mm 0.00 in0.0 mm 0.00 in0.0 mm
05:35 AM 22.9°F-5.1°C 19.6°F-6.9°C 87% Calm Calm -- 30.46 in1031.5 mb 0.00 in0.0 mm 0.00 in0.0 mm 0.00 in0.0 mm
05:30 AM 22.9°F-5.1°C 19.6°F-6.9°C 87% Calm Calm 1.0 mph1.6 kmh 30.46 in1031.5 mb 0.00 in0.0 mm 0.00 in0.0 mm 0.00 in0.0 mm
05:25 AM 22.9°F-5.1°C 19.6°F-6.9°C 87% Calm Calm 1.0 mph1.6 kmh 30.46 in1031.5 mb 0.00 in0.0 mm 0.00 in0.0 mm 0.00 in0.0 mm
05:20 AM 23.0°F-5.0°C 19.7°F-6.8°C 87% Calm Calm -- 30.46 in1031.5 mb 0.00 in0.0 mm 0.00 in0.0 mm 0.00 in0.0 mm
05:15 AM 23.0°F-5.0°C 19.7°F-6.8°C 87% Calm Calm -- 30.46 in1031.5 mb 0.00 in0.0 mm 0.00 in0.0 mm 0.00 in0.0 mm
05:10 AM 23.0°F-5.0°C 19.7°F-6.8°C 87% Calm Calm -- 30.46 in1031.5 mb 0.00 in0.0 mm 0.00 in0.0 mm 0.00 in0.0 mm
05:05 AM 23.1°F-4.9°C 19.8°F-6.8°C 87% Calm Calm -- 30.46 in1031.5 mb 0.00 in0.0 mm 0.00 in0.0 mm 0.00 in0.0 mm
05:00 AM 23.1°F-4.9°C 19.5°F-6.9°C 86% Calm Calm -- 30.46 in1031.5 mb 0.00 in0.0 mm 0.00 in0.0 mm 0.00 in0.0 mm
04:55 AM 23.1°F-4.9°C 19.5°F-6.9°C 86% Calm Calm -- 30.46 in1031.5 mb 0.00 in0.0 mm 0.00 in0.0 mm 0.00 in0.0 mm
04:50 AM 23.2°F-4.9°C 19.6°F-6.9°C 86% Calm Calm -- 30.45 in1031.2 mb 0.00 in0.0 mm 0.00 in0.0 mm 0.00 in0.0 mm
04:45 AM 23.2°F-4.9°C 19.6°F-6.9°C 86% Calm Calm -- 30.46 in1031.5 mb 0.00 in0.0 mm 0.00 in0.0 mm 0.00 in0.0 mm
04:40 AM 23.3°F-4.8°C 19.7°F-6.8°C 86% Calm Calm -- 30.46 in1031.5 mb 0.00 in0.0 mm 0.00 in0.0 mm 0.00 in0.0 mm
04:35 AM 23.3°F-4.8°C 19.7°F-6.8°C 86% Calm Calm -- 30.46 in1031.5 mb 0.00 in0.0 mm 0.00 in0.0 mm 0.00 in0.0 mm
04:30 AM 23.4°F-4.8°C 19.8°F-6.8°C 86% Calm Calm -- 30.46 in1031.5 mb 0.00 in0.0 mm 0.00 in0.0 mm 0.00 in0.0 mm
04:25 AM 23.4°F-4.8°C 19.6°F-6.9°C 85% Calm Calm -- 30.46 in1031.5 mb 0.00 in0.0 mm 0.00 in0.0 mm 0.00 in0.0 mm
04:20 AM 23.4°F-4.8°C 19.6°F-6.9°C 85% Calm Calm -- 30.46 in1031.5 mb 0.00 in0.0 mm 0.00 in0.0 mm 0.00 in0.0 mm
04:15 AM 23.4°F-4.8°C 19.6°F-6.9°C 85% Calm Calm -- 30.46 in1031.5 mb 0.00 in0.0 mm 0.00 in0.0 mm 0.00 in0.0 mm
04:10 AM 23.4°F-4.8°C 19.6°F-6.9°C 85% Calm Calm -- 30.45 in1031.2 mb 0.00 in0.0 mm 0.00 in0.0 mm 0.00 in0.0 mm
04:05 AM 23.4°F-4.8°C 19.6°F-6.9°C 85% Calm Calm -- 30.46 in1031.5 mb 0.00 in0.0 mm 0.00 in0.0 mm 0.00 in0.0 mm
04:00 AM 23.5°F-4.7°C 19.4°F-7.0°C 84% Calm Calm -- 30.46 in1031.5 mb 0.00 in0.0 mm 0.00 in0.0 mm 0.00 in0.0 mm
03:55 AM 23.5°F-4.7°C 19.4°F-7.0°C 84% Calm Calm -- 30.46 in1031.5 mb 0.00 in0.0 mm 0.00 in0.0 mm 0.00 in0.0 mm
03:50 AM 23.5°F-4.7°C 19.4°F-7.0°C 84% Calm Calm -- 30.45 in1031.2 mb 0.00 in0.0 mm 0.00 in0.0 mm 0.00 in0.0 mm
03:45 AM 23.5°F-4.7°C 19.4°F-7.0°C 84% Calm Calm -- 30.45 in1031.2 mb 0.00 in0.0 mm 0.00 in0.0 mm 0.00 in0.0 mm
03:40 AM 23.6°F-4.7°C 19.5°F-6.9°C 84% Calm Calm -- 30.46 in1031.5 mb 0.00 in0.0 mm 0.00 in0.0 mm 0.00 in0.0 mm
03:35 AM 23.6°F-4.7°C 19.5°F-6.9°C 84% Calm Calm -- 30.46 in1031.5 mb 0.00 in0.0 mm 0.00 in0.0 mm 0.00 in0.0 mm
03:30 AM 23.7°F-4.6°C 19.6°F-6.9°C 84% Calm Calm -- 30.46 in1031.5 mb 0.00 in0.0 mm 0.00 in0.0 mm 0.00 in0.0 mm
03:25 AM 23.6°F-4.7°C 19.5°F-6.9°C 84% Calm Calm -- 30.46 in1031.5 mb 0.00 in0.0 mm 0.00 in0.0 mm 0.00 in0.0 mm
03:20 AM 23.7°F-4.6°C 19.6°F-6.9°C 84% Calm Calm -- 30.46 in1031.5 mb 0.00 in0.0 mm 0.00 in0.0 mm 0.00 in0.0 mm
03:15 AM 23.8°F-4.6°C 19.7°F-6.8°C 84% Calm Calm -- 30.46 in1031.5 mb 0.00 in0.0 mm 0.00 in0.0 mm 0.00 in0.0 mm
03:10 AM 23.8°F-4.6°C 19.4°F-7.0°C 83% Calm Calm -- 30.45 in1031.2 mb 0.00 in0.0 mm 0.00 in0.0 mm 0.00 in0.0 mm
03:05 AM 23.9°F-4.5°C 19.2°F-7.1°C 82% Calm Calm -- 30.45 in1031.2 mb 0.00 in0.0 mm 0.00 in0.0 mm 0.00 in0.0 mm
03:00 AM 23.9°F-4.5°C 19.2°F-7.1°C 82% Calm Calm -- 30.45 in1031.2 mb 0.00 in0.0 mm 0.00 in0.0 mm 0.00 in0.0 mm
02:55 AM 23.9°F-4.5°C 19.2°F-7.1°C 82% Calm Calm 2.0 mph3.2 kmh 30.45 in1031.2 mb 0.00 in0.0 mm 0.00 in0.0 mm 0.00 in0.0 mm
02:50 AM 23.9°F-4.5°C 19.2°F-7.1°C 82% Calm Calm 2.0 mph3.2 kmh 30.45 in1031.2 mb 0.00 in0.0 mm 0.00 in0.0 mm 0.00 in0.0 mm
02:45 AM 23.9°F-4.5°C 19.2°F-7.1°C 82% Calm Calm 2.0 mph3.2 kmh 30.45 in1031.2 mb 0.00 in0.0 mm 0.00 in0.0 mm 0.00 in0.0 mm
02:40 AM 24.0°F-4.4°C 19.3°F-7.1°C 82% Calm Calm -- 30.46 in1031.5 mb 0.00 in0.0 mm 0.00 in0.0 mm 0.00 in0.0 mm
02:35 AM 24.0°F-4.4°C 19.3°F-7.1°C 82% Calm Calm -- 30.46 in1031.5 mb 0.00 in0.0 mm 0.00 in0.0 mm 0.00 in0.0 mm
02:30 AM 24.1°F-4.4°C 19.4°F-7.0°C 82% Calm Calm -- 30.46 in1031.5 mb 0.00 in0.0 mm 0.00 in0.0 mm 0.00 in0.0 mm
02:25 AM 24.2°F-4.3°C 19.2°F-7.1°C 81% Calm Calm -- 30.46 in1031.5 mb 0.00 in0.0 mm 0.00 in0.0 mm 0.00 in0.0 mm
02:20 AM 24.2°F-4.3°C 19.2°F-7.1°C 81% Calm Calm -- 30.46 in1031.5 mb 0.00 in0.0 mm 0.00 in0.0 mm 0.00 in0.0 mm
02:15 AM 24.2°F-4.3°C 19.2°F-7.1°C 81% Calm Calm 2.0 mph3.2 kmh 30.45 in1031.2 mb 0.00 in0.0 mm 0.00 in0.0 mm 0.00 in0.0 mm
02:10 AM 24.2°F-4.3°C 19.2°F-7.1°C 81% Calm Calm 2.0 mph3.2 kmh 30.45 in1031.2 mb 0.00 in0.0 mm 0.00 in0.0 mm 0.00 in0.0 mm
02:05 AM 24.2°F-4.3°C 19.2°F-7.1°C 81% Calm Calm 1.0 mph1.6 kmh 30.45 in1031.2 mb 0.00 in0.0 mm 0.00 in0.0 mm 0.00 in0.0 mm
02:00 AM 24.1°F-4.4°C 19.4°F-7.0°C 82% Calm Calm -- 30.45 in1031.2 mb 0.00 in0.0 mm 0.00 in0.0 mm 0.00 in0.0 mm
01:55 AM 24.0°F-4.4°C 19.3°F-7.1°C 82% Calm Calm 1.0 mph1.6 kmh 30.45 in1031.2 mb 0.00 in0.0 mm 0.00 in0.0 mm 0.00 in0.0 mm
01:50 AM 23.8°F-4.6°C 19.1°F-7.2°C 82% Calm Calm 2.0 mph3.2 kmh 30.44 in1030.8 mb 0.00 in0.0 mm 0.00 in0.0 mm 0.00 in0.0 mm
01:45 AM 23.6°F-4.7°C 19.2°F-7.1°C 83% 1.0 mph NE1.6 kmh NE 3.0 mph4.8 kmh 30.43 in1030.5 mb 0.00 in0.0 mm 0.00 in0.0 mm 0.00 in0.0 mm
01:40 AM 23.4°F-4.8°C 19.3°F-7.1°C 84% 1.0 mph NE1.6 kmh NE 3.0 mph4.8 kmh 30.43 in1030.5 mb 0.00 in0.0 mm 0.00 in0.0 mm 0.00 in0.0 mm
01:35 AM 23.3°F-4.8°C 19.5°F-6.9°C 85% Calm Calm -- 30.43 in1030.5 mb 0.00 in0.0 mm 0.00 in0.0 mm 0.00 in0.0 mm
01:30 AM 23.3°F-4.8°C 19.5°F-6.9°C 85% Calm Calm -- 30.43 in1030.5 mb 0.00 in0.0 mm 0.00 in0.0 mm 0.00 in0.0 mm
01:25 AM 23.4°F-4.8°C 19.6°F-6.9°C 85% Calm Calm -- 30.43 in1030.5 mb 0.00 in0.0 mm 0.00 in0.0 mm 0.00 in0.0 mm
01:20 AM 23.4°F-4.8°C 19.6°F-6.9°C 85% Calm Calm -- 30.43 in1030.5 mb 0.00 in0.0 mm 0.00 in0.0 mm 0.00 in0.0 mm
01:15 AM 23.4°F-4.8°C 19.6°F-6.9°C 85% Calm Calm -- 30.43 in1030.5 mb 0.00 in0.0 mm 0.00 in0.0 mm 0.00 in0.0 mm
01:10 AM 23.4°F-4.8°C 19.6°F-6.9°C 85% Calm Calm -- 30.43 in1030.5 mb 0.00 in0.0 mm 0.00 in0.0 mm 0.00 in0.0 mm
01:05 AM 23.4°F-4.8°C 19.3°F-7.1°C 84% Calm Calm -- 30.43 in1030.5 mb 0.00 in0.0 mm 0.00 in0.0 mm 0.00 in0.0 mm
01:00 AM 23.5°F-4.7°C 19.7°F-6.8°C 85% Calm Calm -- 30.43 in1030.5 mb 0.00 in0.0 mm 0.00 in0.0 mm 0.00 in0.0 mm
12:55 AM 23.5°F-4.7°C 19.7°F-6.8°C 85% Calm Calm -- 30.43 in1030.5 mb 0.00 in0.0 mm 0.00 in0.0 mm 0.00 in0.0 mm
12:50 AM 23.6°F-4.7°C 19.8°F-6.8°C 85% Calm Calm -- 30.43 in1030.5 mb 0.00 in0.0 mm 0.00 in0.0 mm 0.00 in0.0 mm
12:45 AM 23.6°F-4.7°C 19.8°F-6.8°C 85% Calm Calm -- 30.43 in1030.5 mb 0.00 in0.0 mm 0.00 in0.0 mm 0.00 in0.0 mm
12:40 AM 23.7°F-4.6°C 19.6°F-6.9°C 84% Calm Calm -- 30.42 in1030.1 mb 0.00 in0.0 mm 0.00 in0.0 mm 0.00 in0.0 mm
12:35 AM 23.7°F-4.6°C 19.6°F-6.9°C 84% Calm Calm -- 30.42 in1030.1 mb 0.00 in0.0 mm 0.00 in0.0 mm 0.00 in0.0 mm
12:30 AM 23.8°F-4.6°C 19.7°F-6.8°C 84% Calm Calm -- 30.43 in1030.5 mb 0.00 in0.0 mm 0.00 in0.0 mm 0.00 in0.0 mm
12:25 AM 23.8°F-4.6°C 19.4°F-7.0°C 83% Calm Calm -- 30.42 in1030.1 mb 0.00 in0.0 mm 0.00 in0.0 mm 0.00 in0.0 mm
12:20 AM 23.8°F-4.6°C 19.4°F-7.0°C 83% Calm Calm -- 30.43 in1030.5 mb 0.00 in0.0 mm 0.00 in0.0 mm 0.00 in0.0 mm
12:15 AM 23.7°F-4.6°C 19.3°F-7.1°C 83% Calm Calm -- 30.43 in1030.5 mb 0.00 in0.0 mm 0.00 in0.0 mm 0.00 in0.0 mm
12:10 AM 23.7°F-4.6°C 19.6°F-6.9°C 84% Calm Calm -- 30.43 in1030.5 mb 0.00 in0.0 mm 0.00 in0.0 mm 0.00 in0.0 mm
12:05 AM 23.7°F-4.6°C 19.3°F-7.1°C 83% Calm Calm -- 30.43 in1030.5 mb 0.00 in0.0 mm 0.00 in0.0 mm 0.00 in0.0 mm
12:00 AM 23.7°F-4.6°C 19.3°F-7.1°C 83% Calm Calm -- 30.42 in1030.1 mb 0.00 in0.0 mm 0.00 in0.0 mm 0.00 in0.0 mm